createdAt,value
2023-10-10T00:02:56.423Z,9.57
2023-10-10T00:06:58.332Z,10.30
2023-10-10T00:11:00.255Z,10.90
2023-10-10T00:15:04.564Z,10.13
2023-10-10T00:19:30.999Z,9.75
2023-10-10T00:23:40.975Z,9.98
2023-10-10T00:27:44.936Z,10.65
2023-10-10T00:31:56.482Z,10.57
2023-10-10T00:36:00.637Z,11.98
2023-10-10T00:40:10.052Z,10.82
2023-10-10T00:44:19.390Z,11.73
2023-10-10T00:48:23.826Z,12.63
2023-10-10T00:52:25.904Z,13.77
2023-10-10T00:56:30.967Z,14.20
2023-10-10T01:00:33.748Z,15.32
2023-10-10T01:04:55.916Z,16.02
2023-10-10T01:09:17.317Z,17.20
2023-10-10T01:13:19.317Z,15.02
2023-10-10T01:17:24.150Z,15.52
2023-10-10T01:21:34.576Z,15.20
2023-10-10T01:25:36.542Z,15.50
2023-10-10T01:29:51.843Z,14.82
2023-10-10T01:33:54.135Z,15.32
2023-10-10T01:37:56.594Z,15.88
2023-10-10T01:42:00.048Z,15.02
2023-10-10T01:46:17.676Z,15.25
2023-10-10T01:50:19.718Z,15.37
2023-10-10T01:54:30.503Z,16.95
2023-10-10T01:58:32.284Z,15.23
2023-10-10T02:02:36.520Z,15.23
2023-10-10T02:06:41.390Z,16.15
2023-10-10T02:10:47.634Z,15.25
2023-10-10T02:14:49.909Z,14.75
2023-10-10T02:18:56.254Z,15.63
2023-10-10T02:23:09.782Z,16.30
2023-10-10T02:27:15.248Z,16.38
2023-10-10T02:31:18.040Z,16.27
2023-10-10T02:35:29.084Z,15.13
2023-10-10T02:39:32.718Z,13.95
2023-10-10T02:43:35.104Z,15.88
2023-10-10T02:47:38.344Z,14.93
2023-10-10T02:51:44.896Z,14.80
2023-10-10T02:55:53.386Z,14.75
2023-10-10T03:00:29.330Z,16.20
2023-10-10T03:04:49.874Z,15.27
2023-10-10T03:09:07.972Z,15.45
2023-10-10T03:13:29.626Z,17.30
2023-10-10T03:17:44.975Z,17.02
2023-10-10T03:21:48.636Z,17.23
2023-10-10T03:26:06.179Z,16.98
2023-10-10T03:34:46.581Z,17.15
2023-10-10T03:38:50.590Z,16.00
2023-10-10T03:43:11.125Z,16.77
2023-10-10T03:47:31.685Z,15.15
2023-10-10T03:51:52.386Z,16.10
2023-10-10T03:56:12.845Z,18.52
2023-10-10T04:00:34.328Z,17.88
2023-10-10T04:04:54.931Z,17.45
2023-10-10T04:09:15.590Z,18.05
2023-10-10T04:13:35.782Z,19.67
2023-10-10T04:17:56.355Z,18.25
2023-10-10T04:22:16.627Z,18.50
2023-10-10T04:26:37.030Z,18.65
2023-10-10T04:30:57.431Z,18.92
2023-10-10T04:35:18.127Z,19.25
2023-10-10T04:39:38.506Z,19.50
2023-10-10T04:43:59.015Z,19.27
2023-10-10T04:48:19.610Z,20.25
2023-10-10T04:52:39.906Z,19.23
2023-10-10T04:57:00.376Z,19.30
2023-10-10T05:01:27.722Z,19.75
2023-10-10T05:05:48.014Z,19.25
2023-10-10T05:10:08.370Z,19.08
2023-10-10T05:14:28.931Z,18.38
2023-10-10T05:18:53.078Z,18.02
2023-10-10T05:23:13.602Z,19.17
2023-10-10T05:27:15.490Z,18.92
2023-10-10T05:31:23.058Z,18.67
2023-10-10T05:35:25.055Z,19.88
2023-10-10T05:39:27.991Z,19.58
2023-10-10T05:43:35.336Z,19.98
2023-10-10T05:47:37.257Z,18.13
2023-10-10T05:51:39.286Z,18.88
2023-10-10T05:55:42.227Z,18.45
2023-10-10T05:59:44.229Z,17.38
2023-10-10T06:03:47.181Z,19.95
2023-10-10T06:07:50.986Z,18.35
2023-10-10T06:11:52.839Z,17.67
2023-10-10T06:15:54.841Z,18.00
2023-10-10T06:19:58.259Z,18.90
2023-10-10T06:24:00.188Z,18.48
2023-10-10T06:28:02.055Z,18.00
2023-10-10T06:32:04.952Z,18.60
2023-10-10T06:36:24.245Z,19.02
2023-10-10T06:40:26.821Z,17.25
2023-10-10T06:44:41.443Z,17.27
2023-10-10T06:48:43.557Z,20.42
2023-10-10T06:52:45.519Z,18.10
2023-10-10T06:57:03.092Z,17.67
2023-10-10T07:01:06.277Z,17.83
2023-10-10T07:05:16.889Z,19.60
2023-10-10T07:09:29.066Z,18.95
2023-10-10T07:13:31.209Z,19.10
2023-10-10T07:17:34.059Z,19.77
2023-10-10T07:21:38.176Z,20.25
2023-10-10T07:25:45.339Z,20.55
2023-10-10T07:29:47.201Z,20.40
2023-10-10T07:34:17.129Z,21.33
2023-10-10T07:38:19.369Z,21.40
2023-10-10T07:42:28.577Z,21.55
2023-10-10T07:46:37.337Z,21.13
2023-10-10T07:50:49.083Z,20.85
2023-10-10T07:54:55.240Z,21.80
2023-10-10T07:58:58.486Z,22.33
2023-10-10T08:03:00.518Z,22.50
2023-10-10T08:07:04.906Z,22.13
2023-10-10T08:11:13.848Z,23.50
2023-10-10T08:15:22.016Z,23.08
2023-10-10T08:23:37.772Z,22.50
2023-10-10T08:27:47.019Z,23.73
2023-10-10T08:31:48.929Z,24.33
2023-10-10T08:35:51.696Z,23.00
2023-10-10T08:39:53.704Z,23.95
2023-10-10T08:43:59.549Z,23.48
2023-10-10T08:48:04.332Z,25.25
2023-10-10T08:52:07.919Z,24.95
2023-10-10T08:56:09.825Z,23.70
2023-10-10T09:00:13.271Z,24.13
2023-10-10T09:04:20.972Z,24.42
2023-10-10T09:08:29.317Z,23.15
2023-10-10T09:16:43.129Z,21.02
2023-10-10T09:20:48.784Z,22.83
2023-10-10T09:24:50.975Z,21.40
2023-10-10T09:29:04.717Z,21.15
2023-10-10T09:33:29.249Z,21.55
2023-10-10T09:37:36.863Z,21.58
2023-10-10T09:41:59.275Z,20.83
2023-10-10T09:46:20.670Z,20.23
2023-10-10T09:50:25.438Z,21.33
2023-10-10T09:54:29.451Z,19.58
2023-10-10T09:58:43.213Z,20.52
2023-10-10T10:02:51.711Z,18.70
2023-10-10T10:07:14.261Z,17.73
2023-10-10T10:11:27.501Z,19.02
2023-10-10T10:15:52.381Z,16.85
2023-10-10T10:20:19.949Z,16.67
2023-10-10T10:24:32.230Z,17.60
2023-10-10T10:28:37.096Z,16.40
2023-10-10T10:32:43.461Z,16.65
2023-10-10T10:36:52.867Z,15.20
2023-10-10T10:41:17.100Z,15.13
2023-10-10T10:45:28.129Z,15.93
2023-10-10T10:49:39.547Z,14.30
2023-10-10T10:53:42.925Z,14.52
2023-10-10T10:57:50.683Z,14.57
2023-10-10T11:01:59.138Z,15.45
2023-10-10T11:06:02.308Z,15.35
2023-10-10T11:10:10.341Z,13.98
2023-10-10T11:14:21.045Z,14.80
2023-10-10T11:18:36.529Z,14.23
2023-10-10T11:22:41.824Z,14.57
2023-10-10T11:26:46.127Z,14.38
2023-10-10T11:30:48.106Z,12.40
2023-10-10T11:34:51.251Z,14.52
2023-10-10T11:38:57.561Z,13.75
2023-10-10T11:43:12.744Z,12.60
2023-10-10T11:47:26.242Z,12.23
2023-10-10T11:51:37.920Z,12.57
2023-10-10T11:55:43.108Z,13.25
2023-10-10T11:59:48.412Z,12.02
2023-10-10T12:03:50.649Z,12.10
2023-10-10T12:07:54.733Z,12.63
2023-10-10T12:12:05.862Z,11.13
2023-10-10T12:16:14.283Z,13.00
2023-10-10T12:20:17.809Z,11.75
2023-10-10T12:24:19.760Z,10.75
2023-10-10T12:28:22.286Z,12.35
2023-10-10T12:32:24.230Z,10.70
2023-10-10T12:36:34.095Z,11.07
2023-10-10T12:40:36.492Z,9.63
2023-10-10T12:44:38.501Z,10.20
2023-10-10T12:48:43.172Z,9.43
2023-10-10T12:52:48.021Z,9.10
2023-10-10T12:57:00.626Z,8.43
2023-10-10T13:01:02.668Z,8.43
2023-10-10T13:05:08.979Z,10.77
2023-10-10T13:09:16.233Z,8.95
2023-10-10T13:13:27.995Z,8.40
2023-10-10T13:17:29.986Z,8.48
2023-10-10T13:21:31.955Z,7.60
2023-10-10T13:25:40.934Z,7.78
2023-10-10T13:29:43.761Z,6.65
2023-10-10T13:33:46.684Z,6.25
2023-10-10T13:37:48.538Z,6.43
2023-10-10T13:41:50.363Z,5.40
2023-10-10T13:45:52.691Z,5.03
2023-10-10T13:50:14.554Z,5.22
2023-10-10T13:54:17.462Z,4.60
2023-10-10T13:58:19.397Z,4.72
2023-10-10T14:02:26.532Z,4.90
2023-10-10T14:06:35.313Z,5.20
2023-10-10T14:10:39.869Z,4.40
2023-10-10T14:14:46.173Z,4.85
2023-10-10T14:18:51.679Z,4.85
2023-10-10T14:22:56.352Z,4.60
2023-10-10T14:27:00.750Z,4.45
2023-10-10T14:31:05.094Z,4.75
2023-10-10T14:35:09.489Z,3.47
2023-10-10T14:39:29.433Z,5.00
2023-10-10T14:43:34.410Z,3.95
2023-10-10T14:47:40.671Z,4.45
2023-10-10T14:51:43.003Z,3.85
2023-10-10T14:55:45.823Z,3.58
2023-10-10T14:59:47.833Z,3.58
2023-10-10T15:03:50.046Z,3.88
2023-10-10T15:07:53.900Z,3.63
2023-10-10T15:12:00.879Z,3.95
2023-10-10T15:16:03.125Z,5.22
2023-10-10T15:20:13.448Z,4.90
2023-10-10T15:24:16.466Z,5.70
2023-10-10T15:28:19.721Z,6.28
2023-10-10T15:32:21.692Z,4.95
2023-10-10T15:36:23.598Z,6.43
2023-10-10T15:40:25.399Z,5.82
2023-10-10T15:44:28.632Z,6.78
2023-10-10T15:48:30.636Z,6.13
2023-10-10T15:52:35.112Z,6.63
2023-10-10T15:56:38.358Z,7.43
2023-10-10T16:00:40.858Z,7.00
2023-10-10T16:04:44.290Z,7.10
2023-10-10T16:08:48.708Z,7.55
2023-10-10T16:12:50.628Z,6.45
2023-10-10T16:16:52.857Z,8.13
2023-10-10T16:20:54.804Z,8.00
2023-10-10T16:24:56.761Z,6.80
2023-10-10T16:28:58.585Z,7.43
2023-10-10T16:33:00.558Z,7.45
2023-10-10T16:37:02.561Z,8.20
2023-10-10T16:41:08.047Z,7.40
2023-10-10T16:45:11.943Z,7.45
2023-10-10T16:49:16.355Z,7.53
2023-10-10T16:53:18.373Z,6.57
2023-10-10T16:57:27.219Z,6.47
2023-10-10T17:01:29.685Z,6.13
2023-10-10T17:05:37.665Z,5.07
2023-10-10T17:09:41.425Z,5.30
2023-10-10T17:13:43.726Z,4.95
2023-10-10T17:17:49.610Z,4.60
2023-10-10T17:21:51.584Z,4.90
2023-10-10T17:25:53.444Z,4.68
2023-10-10T17:29:58.476Z,4.50
2023-10-10T17:34:02.834Z,4.30
2023-10-10T17:38:04.912Z,4.35
2023-10-10T17:42:08.015Z,5.38
2023-10-10T17:46:16.904Z,3.85
2023-10-10T17:50:18.774Z,4.53
2023-10-10T17:54:20.780Z,3.90
2023-10-10T17:58:22.600Z,4.32
2023-10-10T18:02:24.549Z,4.65
2023-10-10T18:06:27.880Z,3.65
2023-10-10T18:10:29.711Z,3.88
2023-10-10T18:14:32.060Z,4.38
2023-10-10T18:18:36.583Z,4.20
2023-10-10T18:22:40.419Z,4.30
2023-10-10T18:26:42.362Z,3.90
2023-10-10T18:30:44.273Z,3.65
2023-10-10T18:34:46.413Z,3.35
2023-10-10T18:38:49.608Z,3.47
2023-10-10T18:42:52.059Z,3.70
2023-10-10T18:46:53.896Z,3.30
2023-10-10T18:50:56.034Z,3.70
2023-10-10T18:54:57.925Z,3.15
2023-10-10T18:59:02.322Z,2.72
2023-10-10T19:03:08.593Z,3.58
2023-10-10T19:07:11.509Z,3.08
2023-10-10T19:11:14.937Z,3.60
2023-10-10T19:15:17.306Z,3.28
2023-10-10T19:19:21.288Z,3.53
2023-10-10T19:23:23.756Z,3.55
2023-10-10T19:27:26.942Z,3.05
2023-10-10T19:31:28.923Z,2.80
2023-10-10T19:35:30.775Z,3.05
2023-10-10T19:39:34.232Z,3.38
2023-10-10T19:43:37.934Z,2.90
2023-10-10T19:47:41.270Z,3.50
2023-10-10T19:51:45.731Z,3.47
2023-10-10T19:55:50.889Z,3.50
2023-10-10T19:59:52.810Z,4.05
2023-10-10T20:03:57.214Z,3.83
2023-10-10T20:07:59.801Z,3.83
2023-10-10T20:12:04.119Z,4.65
2023-10-10T20:16:16.613Z,4.38
2023-10-10T20:20:21.161Z,4.35
2023-10-10T20:24:25.298Z,5.13
2023-10-10T20:28:27.573Z,4.70
2023-10-10T20:32:29.753Z,5.30
2023-10-10T20:36:31.764Z,5.80
2023-10-10T20:40:35.020Z,5.93
2023-10-10T20:44:37.311Z,6.72
2023-10-10T20:48:39.250Z,6.18
2023-10-10T20:52:42.494Z,5.88
2023-10-10T20:56:44.761Z,7.03
2023-10-10T21:00:46.714Z,6.03
2023-10-10T21:04:48.708Z,6.28
2023-10-10T21:08:50.769Z,6.10
2023-10-10T21:12:53.196Z,6.63
2023-10-10T21:16:55.645Z,7.18
2023-10-10T21:21:04.177Z,7.13
2023-10-10T21:25:07.365Z,7.82
2023-10-10T21:29:09.219Z,7.82
2023-10-10T21:33:11.141Z,8.85
2023-10-10T21:37:14.624Z,8.43
2023-10-10T21:41:16.615Z,8.25
2023-10-10T21:45:20.970Z,8.00
2023-10-10T21:49:22.989Z,8.23
2023-10-10T21:53:24.846Z,8.15
2023-10-10T21:57:26.690Z,8.48
2023-10-10T22:01:28.607Z,8.13
2023-10-10T22:05:31.921Z,7.90
2023-10-10T22:09:33.976Z,8.90
2023-10-10T22:13:38.833Z,9.80
2023-10-10T22:17:40.890Z,9.73
2023-10-10T22:21:43.041Z,9.23
2023-10-10T22:25:44.865Z,8.40
2023-10-10T22:29:46.747Z,8.75
2023-10-10T22:33:48.718Z,9.07
2023-10-10T22:37:52.664Z,8.70
2023-10-10T22:41:54.525Z,8.68
2023-10-10T22:45:56.377Z,7.95
2023-10-10T22:49:58.898Z,8.43
2023-10-10T22:54:02.782Z,7.88
2023-10-10T22:58:09.164Z,8.73
2023-10-10T23:02:12.576Z,9.15
2023-10-10T23:06:14.487Z,8.35
2023-10-10T23:10:21.732Z,7.80
2023-10-10T23:14:23.630Z,9.35
2023-10-10T23:18:25.635Z,8.65
2023-10-10T23:22:27.606Z,7.45
2023-10-10T23:26:29.414Z,7.57
2023-10-10T23:30:34.525Z,9.13
2023-10-10T23:34:36.454Z,8.63
2023-10-10T23:38:41.776Z,8.60
2023-10-10T23:42:52.594Z,8.07
2023-10-10T23:46:56.364Z,8.48
2023-10-10T23:50:58.796Z,8.60
2023-10-10T23:55:02.234Z,7.35
2023-10-10T23:59:04.278Z,8.32
